createdAt,value
2022-08-14T00:01:36.602Z,5.88
2022-08-14T00:04:03.544Z,6.50
2022-08-14T00:06:50.333Z,5.53
2022-08-14T00:09:17.083Z,5.82
2022-08-14T00:11:44.522Z,6.30
2022-08-14T00:14:11.596Z,6.20
2022-08-14T00:16:45.076Z,6.13
2022-08-14T00:19:19.630Z,6.88
2022-08-14T00:21:52.086Z,5.97
2022-08-14T00:24:28.455Z,6.63
2022-08-14T00:26:58.347Z,5.97
2022-08-14T00:29:30.606Z,5.85
2022-08-14T00:32:00.120Z,6.90
2022-08-14T00:34:35.482Z,6.28
2022-08-14T00:37:05.735Z,6.55
2022-08-14T00:39:32.904Z,6.28
2022-08-14T00:41:59.912Z,6.20
2022-08-14T00:44:32.906Z,5.65
2022-08-14T00:47:10.947Z,5.82
2022-08-14T00:49:43.401Z,5.65
2022-08-14T00:52:18.104Z,5.70
2022-08-14T00:54:46.690Z,5.55
2022-08-14T00:57:13.826Z,6.05
2022-08-14T00:59:41.305Z,6.13
2022-08-14T01:02:10.689Z,6.20
2022-08-14T01:04:53.397Z,5.57
2022-08-14T01:07:22.987Z,5.45
2022-08-14T01:09:55.820Z,5.70
2022-08-14T01:12:26.312Z,6.00
2022-08-14T01:14:55.493Z,5.47
2022-08-14T01:17:49.766Z,5.78
2022-08-14T01:20:39.319Z,5.95
2022-08-14T01:23:15.633Z,5.65
2022-08-14T01:25:44.099Z,5.95
2022-08-14T01:28:47.067Z,5.28
2022-08-14T01:31:00.292Z,5.43
2022-08-14T01:33:30.161Z,5.70
2022-08-14T01:36:05.127Z,5.88
2022-08-14T01:38:37.243Z,5.55
2022-08-14T01:41:14.806Z,5.97
2022-08-14T01:43:56.056Z,6.32
2022-08-14T01:46:25.226Z,6.30
2022-08-14T01:49:01.408Z,5.60
2022-08-14T01:51:29.123Z,5.80
2022-08-14T01:54:00.764Z,5.70
2022-08-14T01:56:49.371Z,6.05
2022-08-14T01:59:37.945Z,6.75
2022-08-14T02:02:18.932Z,6.65
2022-08-14T02:04:55.746Z,5.93
2022-08-14T02:07:34.070Z,5.88
2022-08-14T02:10:15.796Z,5.90
2022-08-14T02:12:48.862Z,6.10
2022-08-14T02:15:21.763Z,5.90
2022-08-14T02:17:50.247Z,5.80
2022-08-14T02:20:19.402Z,5.70
2022-08-14T02:22:52.066Z,5.15
2022-08-14T02:25:22.007Z,6.20
2022-08-14T02:28:24.818Z,5.47
2022-08-14T02:30:38.185Z,5.60
2022-08-14T02:33:06.955Z,5.65
2022-08-14T02:35:33.729Z,5.72
2022-08-14T02:38:11.624Z,5.20
2022-08-14T02:40:48.756Z,5.40
2022-08-14T02:43:17.400Z,5.63
2022-08-14T02:45:49.705Z,5.35
2022-08-14T02:49:04.605Z,5.30
2022-08-14T02:51:07.205Z,5.75
2022-08-14T02:53:38.295Z,4.95
2022-08-14T02:56:30.496Z,5.32
2022-08-14T02:59:01.949Z,5.28
2022-08-14T03:01:43.347Z,5.43
2022-08-14T03:04:20.568Z,5.50
2022-08-14T03:07:06.589Z,5.82
2022-08-14T03:10:25.040Z,5.30
2022-08-14T03:12:31.330Z,5.47
2022-08-14T03:15:08.960Z,5.40
2022-08-14T03:17:56.009Z,5.70
2022-08-14T03:20:25.643Z,5.82
2022-08-14T03:22:52.856Z,5.45
2022-08-14T03:25:22.140Z,5.20
2022-08-14T03:27:58.323Z,5.60
2022-08-14T03:30:39.617Z,5.63
2022-08-14T03:33:11.008Z,6.22
2022-08-14T03:36:05.736Z,6.80
2022-08-14T03:39:14.827Z,6.00
2022-08-14T03:41:16.853Z,5.32
2022-08-14T03:43:45.827Z,5.60
2022-08-14T03:49:13.879Z,5.30
2022-08-14T03:51:51.545Z,6.15
2022-08-14T03:54:20.806Z,5.57
2022-08-14T03:56:50.132Z,5.25
2022-08-14T03:59:17.731Z,5.75
2022-08-14T04:01:57.972Z,5.45
2022-08-14T04:04:32.235Z,5.43
2022-08-14T04:07:01.359Z,5.05
2022-08-14T04:09:28.462Z,4.72
2022-08-14T04:11:56.100Z,5.28
2022-08-14T04:14:25.033Z,5.50
2022-08-14T04:16:51.892Z,4.85
2022-08-14T04:19:19.913Z,5.10
2022-08-14T04:22:02.240Z,5.03
2022-08-14T04:24:37.984Z,5.65
2022-08-14T04:27:09.740Z,5.00
2022-08-14T04:29:42.546Z,4.85
2022-08-14T04:33:10.254Z,4.88
2022-08-14T04:34:57.387Z,5.20
2022-08-14T04:37:45.139Z,5.40
2022-08-14T04:40:31.921Z,5.60
2022-08-14T04:43:17.777Z,5.50
2022-08-14T04:45:45.335Z,4.82
2022-08-14T04:48:39.929Z,5.45
2022-08-14T04:51:13.482Z,5.10
2022-08-14T04:53:44.680Z,5.63
2022-08-14T04:56:33.916Z,5.53
2022-08-14T04:59:09.891Z,5.28
2022-08-14T05:01:48.677Z,5.10
2022-08-14T05:04:20.484Z,5.07
2022-08-14T05:06:54.379Z,5.40
2022-08-14T05:09:24.241Z,5.35
2022-08-14T05:11:51.493Z,5.50
2022-08-14T05:14:46.134Z,6.85
2022-08-14T05:17:06.993Z,5.85
2022-08-14T05:19:33.852Z,4.60
2022-08-14T05:22:17.123Z,3.85
2022-08-14T05:24:51.349Z,3.95
2022-08-14T05:27:23.027Z,3.78
2022-08-14T05:29:53.214Z,4.45
2022-08-14T05:32:20.424Z,3.40
2022-08-14T05:34:47.940Z,3.30
2022-08-14T05:37:15.324Z,3.50
2022-08-14T05:39:43.028Z,3.10
2022-08-14T05:42:22.399Z,3.10
2022-08-14T05:44:55.540Z,2.85
2022-08-14T05:47:23.090Z,2.72
2022-08-14T05:49:50.430Z,2.92
2022-08-14T05:52:18.891Z,3.03
2022-08-14T05:55:00.703Z,2.72
2022-08-14T05:57:27.551Z,2.85
2022-08-14T05:59:55.119Z,3.10
2022-08-14T06:02:21.877Z,2.88
2022-08-14T06:04:49.500Z,2.70
2022-08-14T06:07:16.576Z,2.47
2022-08-14T06:09:43.623Z,2.65
2022-08-14T06:12:56.120Z,2.70
2022-08-14T06:15:08.153Z,2.60
2022-08-14T06:17:55.835Z,2.70
2022-08-14T06:20:27.949Z,2.50
2022-08-14T06:22:55.399Z,2.60
2022-08-14T06:25:23.465Z,2.60
2022-08-14T06:27:52.180Z,2.50
2022-08-14T06:30:21.957Z,2.20
2022-08-14T06:32:52.730Z,2.40
2022-08-14T06:35:23.479Z,2.53
2022-08-14T06:37:51.749Z,2.50
2022-08-14T06:40:34.309Z,2.50
2022-08-14T06:43:06.911Z,2.38
2022-08-14T06:45:38.876Z,2.40
2022-08-14T06:48:24.207Z,2.63
2022-08-14T06:50:55.015Z,2.30
2022-08-14T06:53:28.307Z,2.10
2022-08-14T06:56:00.699Z,2.30
2022-08-14T06:58:31.377Z,2.10
2022-08-14T07:01:25.070Z,2.30
2022-08-14T07:04:23.994Z,2.40
2022-08-14T07:06:58.491Z,2.20
2022-08-14T07:09:40.489Z,2.13
2022-08-14T07:12:34.837Z,2.20
2022-08-14T07:15:01.153Z,2.30
2022-08-14T07:17:28.708Z,2.33
2022-08-14T07:19:58.891Z,2.22
2022-08-14T07:22:32.930Z,2.00
2022-08-14T07:25:12.931Z,2.10
2022-08-14T07:27:40.912Z,2.15
2022-08-14T07:30:34.692Z,2.28
2022-08-14T07:32:57.604Z,2.20
2022-08-14T07:35:24.393Z,2.28
2022-08-14T07:37:57.155Z,2.22
2022-08-14T07:40:27.704Z,2.20
2022-08-14T07:42:56.895Z,2.38
2022-08-14T07:45:41.591Z,2.45
2022-08-14T07:48:09.372Z,2.65
2022-08-14T07:50:42.397Z,2.40
2022-08-14T07:53:14.512Z,2.33
2022-08-14T07:58:34.585Z,2.10
2022-08-14T08:00:57.798Z,2.40
2022-08-14T08:03:28.139Z,2.63
2022-08-14T08:05:56.911Z,2.30
2022-08-14T08:08:27.013Z,2.40
2022-08-14T08:11:03.067Z,2.20
2022-08-14T08:13:33.952Z,2.30
2022-08-14T08:16:08.157Z,2.33
2022-08-14T08:18:36.142Z,2.30
2022-08-14T08:21:03.432Z,2.30
2022-08-14T08:23:40.054Z,2.30
2022-08-14T08:26:07.100Z,2.25
2022-08-14T08:28:34.396Z,2.40
2022-08-14T08:31:05.287Z,2.30
2022-08-14T08:33:36.846Z,2.50
2022-08-14T08:36:06.619Z,2.00
2022-08-14T08:39:17.146Z,2.67
2022-08-14T08:41:21.706Z,2.58
2022-08-14T08:43:48.446Z,2.40
2022-08-14T08:46:21.453Z,2.40
2022-08-14T08:51:25.108Z,2.58
2022-08-14T08:54:15.356Z,3.03
2022-08-14T08:56:48.911Z,2.22
2022-08-14T08:59:21.038Z,2.35
2022-08-14T09:02:06.308Z,2.30
2022-08-14T09:04:45.489Z,2.58
2022-08-14T09:07:20.080Z,2.40
2022-08-14T09:09:59.770Z,2.75
2022-08-14T09:15:11.377Z,2.63
2022-08-14T09:17:41.389Z,2.20
2022-08-14T09:20:11.397Z,2.45
2022-08-14T09:22:42.545Z,2.63
2022-08-14T09:25:19.780Z,2.80
2022-08-14T09:27:47.338Z,2.70
2022-08-14T09:30:32.675Z,2.80
2022-08-14T09:33:11.732Z,2.45
2022-08-14T09:36:00.479Z,2.88
2022-08-14T09:39:22.938Z,3.22
2022-08-14T09:42:20.824Z,2.50
2022-08-14T09:45:39.671Z,2.80
2022-08-14T09:48:30.241Z,3.10
2022-08-14T09:50:58.602Z,2.60
2022-08-14T09:54:18.073Z,2.80
2022-08-14T09:56:24.305Z,3.00
2022-08-14T09:59:15.046Z,2.70
2022-08-14T10:01:43.699Z,2.70
2022-08-14T10:04:34.744Z,2.60
2022-08-14T10:07:05.334Z,2.70
2022-08-14T10:09:35.159Z,2.47
2022-08-14T10:12:04.623Z,2.78
2022-08-14T10:17:06.043Z,4.30
2022-08-14T10:19:35.668Z,2.80
2022-08-14T10:23:13.513Z,2.78
2022-08-14T10:24:57.578Z,2.88
2022-08-14T10:27:28.117Z,2.75
2022-08-14T10:29:59.753Z,2.70
2022-08-14T10:32:29.118Z,2.80
2022-08-14T10:35:14.615Z,2.92
2022-08-14T10:37:50.349Z,2.88
2022-08-14T10:40:38.886Z,2.97
2022-08-14T10:43:22.980Z,2.70
2022-08-14T10:45:59.851Z,3.40
2022-08-14T10:48:36.403Z,3.35
2022-08-14T10:51:08.350Z,3.10
2022-08-14T10:53:39.896Z,3.10
2022-08-14T10:56:21.593Z,2.90
2022-08-14T10:59:05.176Z,6.05
2022-08-14T11:01:38.394Z,2.85
2022-08-14T11:04:20.489Z,2.80
2022-08-14T11:06:56.862Z,2.60
2022-08-14T11:09:26.311Z,2.63
2022-08-14T11:17:33.101Z,2.70
2022-08-14T11:20:02.616Z,2.85
2022-08-14T11:22:52.290Z,2.90
2022-08-14T11:25:20.482Z,2.70
2022-08-14T11:27:49.098Z,2.50
2022-08-14T11:30:50.710Z,2.60
2022-08-14T11:33:09.378Z,2.20
2022-08-14T11:35:47.751Z,2.10
2022-08-14T11:38:17.134Z,2.47
2022-08-14T11:40:47.225Z,2.70
2022-08-14T11:43:15.409Z,2.70
2022-08-14T11:45:47.899Z,2.75
2022-08-14T11:49:04.048Z,2.80
2022-08-14T11:53:57.628Z,2.30
2022-08-14T11:56:29.698Z,2.30
2022-08-14T11:58:57.395Z,2.40
2022-08-14T12:01:28.637Z,2.70
2022-08-14T12:06:39.194Z,2.20
2022-08-14T12:09:08.569Z,2.30
2022-08-14T12:11:47.536Z,2.22
2022-08-14T12:14:30.479Z,2.15
2022-08-14T12:17:09.659Z,2.00
2022-08-14T12:19:54.288Z,2.08
2022-08-14T12:22:34.723Z,2.40
2022-08-14T12:25:05.950Z,2.40
2022-08-14T12:27:42.011Z,2.20
2022-08-14T12:30:26.843Z,2.20
2022-08-14T12:32:58.291Z,2.20
2022-08-14T12:35:39.987Z,2.20
2022-08-14T12:38:07.404Z,2.40
2022-08-14T12:40:34.255Z,2.38
2022-08-14T12:43:03.183Z,2.38
2022-08-14T12:45:33.538Z,2.40
2022-08-14T12:48:20.630Z,2.53
2022-08-14T12:50:53.846Z,2.28
2022-08-14T12:53:22.141Z,2.70
2022-08-14T12:56:18.519Z,2.60
2022-08-14T12:58:52.842Z,2.60
2022-08-14T13:01:25.562Z,2.50
2022-08-14T13:04:14.432Z,2.80
2022-08-14T13:06:50.794Z,2.70
2022-08-14T13:09:19.231Z,3.20
2022-08-14T13:11:58.802Z,3.00
2022-08-14T13:14:38.876Z,2.42
2022-08-14T13:17:07.180Z,2.70
2022-08-14T13:19:35.612Z,2.60
2022-08-14T13:22:09.660Z,2.60
2022-08-14T13:24:38.883Z,2.40
2022-08-14T13:27:06.804Z,2.30
2022-08-14T13:29:43.786Z,2.28
2022-08-14T13:32:14.018Z,2.28
2022-08-14T13:34:43.765Z,2.40
2022-08-14T13:37:17.300Z,2.40
2022-08-14T13:39:56.630Z,2.35
2022-08-14T13:42:30.518Z,2.28
2022-08-14T13:45:04.415Z,2.30
2022-08-14T13:47:33.164Z,2.47
2022-08-14T13:50:04.503Z,2.42
2022-08-14T13:52:51.714Z,2.10
2022-08-14T13:55:28.822Z,2.40
2022-08-14T13:58:03.449Z,2.20
2022-08-14T14:00:52.798Z,2.53
2022-08-14T14:03:22.163Z,2.30
2022-08-14T14:05:54.903Z,2.30
2022-08-14T14:08:43.173Z,2.20
2022-08-14T14:11:15.816Z,2.22
2022-08-14T14:13:48.527Z,2.30
2022-08-14T14:16:26.498Z,2.50
2022-08-14T14:19:09.200Z,2.88
2022-08-14T14:21:37.974Z,2.58
2022-08-14T14:24:07.692Z,2.70
2022-08-14T14:26:36.163Z,3.30
2022-08-14T14:29:06.224Z,3.60
2022-08-14T14:31:38.898Z,3.65
2022-08-14T14:34:29.024Z,3.65
2022-08-14T14:37:04.683Z,3.50
2022-08-14T14:39:35.381Z,3.38
2022-08-14T14:42:06.537Z,3.45
2022-08-14T14:44:40.255Z,3.30
2022-08-14T14:47:11.088Z,3.50
2022-08-14T14:49:51.434Z,3.38
2022-08-14T14:52:26.906Z,3.42
2022-08-14T14:54:58.439Z,3.40
2022-08-14T14:57:35.277Z,3.50
2022-08-14T15:00:13.047Z,3.28
2022-08-14T15:02:46.139Z,3.65
2022-08-14T15:05:16.089Z,3.65
2022-08-14T15:07:44.108Z,3.50
2022-08-14T15:10:27.683Z,3.58
2022-08-14T15:13:00.250Z,3.65
2022-08-14T15:15:32.806Z,3.20
2022-08-14T15:18:00.132Z,3.80
2022-08-14T15:20:29.635Z,3.60
2022-08-14T15:22:58.500Z,3.53
2022-08-14T15:25:25.936Z,3.70
2022-08-14T15:27:54.561Z,3.70
2022-08-14T15:30:24.092Z,4.63
2022-08-14T15:32:59.154Z,3.70
2022-08-14T15:35:29.723Z,4.00
2022-08-14T15:38:08.607Z,3.88
2022-08-14T15:40:41.164Z,3.90
2022-08-14T15:43:10.875Z,3.78
2022-08-14T15:45:41.108Z,3.78
2022-08-14T15:48:08.990Z,3.80
2022-08-14T15:50:50.699Z,3.90
2022-08-14T15:53:17.880Z,3.78
2022-08-14T15:55:47.076Z,3.60
2022-08-14T15:58:15.021Z,3.55
2022-08-14T16:01:00.259Z,3.50
2022-08-14T16:03:35.300Z,3.80
2022-08-14T16:06:15.442Z,3.47
2022-08-14T16:08:58.768Z,4.15
2022-08-14T16:11:28.863Z,3.70
2022-08-14T16:13:59.802Z,4.10
2022-08-14T16:16:34.540Z,4.07
2022-08-14T16:19:19.434Z,4.07
2022-08-14T16:22:01.867Z,3.78
2022-08-14T16:24:59.978Z,4.13
2022-08-14T16:27:34.142Z,3.80
2022-08-14T16:30:10.976Z,4.03
2022-08-14T16:32:55.594Z,4.03
2022-08-14T16:35:26.338Z,3.83
2022-08-14T16:37:55.665Z,3.75
2022-08-14T16:43:04.125Z,4.07
2022-08-14T16:45:43.391Z,4.05
2022-08-14T16:48:55.263Z,3.88
2022-08-14T16:50:58.516Z,3.90
2022-08-14T16:53:27.643Z,3.95
2022-08-14T16:56:17.242Z,3.90
2022-08-14T16:59:20.265Z,4.30
2022-08-14T17:02:00.271Z,3.95
2022-08-14T17:04:34.515Z,4.05
2022-08-14T17:07:13.030Z,4.13
2022-08-14T17:09:53.122Z,4.10
2022-08-14T17:12:34.992Z,3.70
2022-08-14T17:15:10.019Z,4.10
2022-08-14T17:17:40.613Z,4.18
2022-08-14T17:20:33.998Z,4.20
2022-08-14T17:22:59.507Z,4.35
2022-08-14T17:25:29.906Z,4.20
2022-08-14T17:28:50.302Z,4.10
2022-08-14T17:31:03.101Z,4.10
2022-08-14T17:33:40.574Z,4.10
2022-08-14T17:36:21.650Z,4.28
2022-08-14T17:39:09.042Z,3.90
2022-08-14T17:41:48.407Z,4.30
2022-08-14T17:44:44.957Z,4.15
2022-08-14T17:47:14.523Z,4.03
2022-08-14T17:49:47.515Z,4.03
2022-08-14T17:52:34.531Z,4.28
2022-08-14T17:55:06.656Z,4.30
2022-08-14T17:57:40.627Z,4.22
2022-08-14T18:00:16.454Z,4.67
2022-08-14T18:05:23.695Z,4.15
2022-08-14T18:08:33.110Z,4.90
2022-08-14T18:10:56.807Z,4.47
2022-08-14T18:13:50.415Z,4.68
2022-08-14T18:16:20.125Z,4.30
2022-08-14T18:18:48.770Z,4.63
2022-08-14T18:21:41.649Z,4.55
2022-08-14T18:24:03.508Z,4.53
2022-08-14T18:26:36.818Z,4.30
2022-08-14T18:29:14.654Z,4.65
2022-08-14T18:31:45.330Z,4.40
2022-08-14T18:37:16.549Z,4.32
2022-08-14T18:40:01.458Z,4.80
2022-08-14T18:42:34.639Z,4.43
2022-08-14T18:45:01.922Z,4.38
2022-08-14T18:47:56.558Z,4.63
2022-08-14T18:50:27.810Z,4.38
2022-08-14T18:53:10.824Z,4.63
2022-08-14T18:55:52.929Z,4.70
2022-08-14T18:58:45.408Z,4.63
2022-08-14T19:01:24.115Z,4.43
2022-08-14T19:03:52.044Z,4.57
2022-08-14T19:06:19.245Z,4.72
2022-08-14T19:08:49.103Z,4.97
2022-08-14T19:13:59.789Z,4.68
2022-08-14T19:16:36.811Z,4.82
2022-08-14T19:19:09.561Z,4.43
2022-08-14T19:21:40.771Z,5.00
2022-08-14T19:24:30.904Z,5.25
2022-08-14T19:27:23.924Z,5.25
2022-08-14T19:30:10.567Z,5.45
2022-08-14T19:32:50.996Z,5.63
2022-08-14T19:35:49.376Z,5.90
2022-08-14T19:38:33.434Z,6.30
2022-08-14T19:41:12.524Z,6.78
2022-08-14T19:43:55.686Z,7.45
2022-08-14T19:46:37.870Z,7.03
2022-08-14T19:49:06.792Z,7.45
2022-08-14T19:51:43.541Z,7.97
2022-08-14T19:54:13.709Z,8.35
2022-08-14T19:56:45.378Z,7.72
2022-08-14T19:59:17.691Z,8.43
2022-08-14T20:01:44.806Z,8.05
2022-08-14T20:04:45.377Z,7.97
2022-08-14T20:07:08.957Z,7.82
2022-08-14T20:11:06.795Z,8.40
2022-08-14T20:12:28.842Z,8.90
2022-08-14T20:15:06.302Z,9.35
2022-08-14T20:17:40.404Z,9.18
2022-08-14T20:20:31.682Z,10.68
2022-08-14T20:23:11.301Z,11.35
2022-08-14T20:25:45.512Z,11.38
2022-08-14T20:28:31.989Z,10.85
2022-08-14T20:31:13.569Z,11.32
2022-08-14T20:33:48.211Z,10.55
2022-08-14T20:36:26.702Z,10.25
2022-08-14T20:38:57.523Z,10.73
2022-08-14T20:41:24.351Z,12.02
2022-08-14T20:44:09.746Z,12.18
2022-08-14T20:46:39.513Z,10.77
2022-08-14T20:51:58.438Z,10.52
2022-08-14T20:54:33.979Z,10.50
2022-08-14T20:57:10.035Z,10.32
2022-08-14T20:59:53.071Z,10.38
2022-08-14T21:02:34.719Z,10.55
2022-08-14T21:05:16.263Z,9.80
2022-08-14T21:10:35.358Z,9.90
2022-08-14T21:13:26.215Z,10.05
2022-08-14T21:15:57.130Z,10.13
2022-08-14T21:18:47.381Z,11.57
2022-08-14T21:21:17.923Z,11.25
2022-08-14T21:23:54.699Z,12.13
2022-08-14T21:26:51.110Z,10.85
2022-08-14T21:29:19.387Z,9.90
2022-08-14T21:31:55.911Z,10.00
2022-08-14T21:34:31.131Z,11.07
2022-08-14T21:37:08.819Z,11.82
2022-08-14T21:39:36.630Z,11.18
2022-08-14T21:42:05.813Z,10.55
2022-08-14T21:44:43.313Z,11.30
2022-08-14T21:47:12.892Z,10.15
2022-08-14T21:49:40.166Z,10.30
2022-08-14T21:52:50.351Z,10.15
2022-08-14T21:55:09.243Z,10.85
2022-08-14T21:58:46.092Z,10.70
2022-08-14T22:00:35.111Z,10.52
2022-08-14T22:03:09.194Z,10.93
2022-08-14T22:05:38.692Z,10.57
2022-08-14T22:08:06.563Z,10.00
2022-08-14T22:10:35.235Z,9.70
2022-08-14T22:13:02.225Z,9.63
2022-08-14T22:15:32.391Z,9.20
2022-08-14T22:18:00.365Z,9.40
2022-08-14T22:20:29.916Z,9.73
2022-08-14T22:22:58.854Z,10.18
2022-08-14T22:25:34.102Z,9.63
2022-08-14T22:28:06.173Z,10.02
2022-08-14T22:30:37.198Z,9.90
2022-08-14T22:33:05.723Z,9.77
2022-08-14T22:35:37.390Z,9.90
2022-08-14T22:38:35.813Z,9.50
2022-08-14T22:41:25.190Z,9.80
2022-08-14T22:43:39.691Z,10.05
2022-08-14T22:46:14.761Z,9.65
2022-08-14T22:48:45.222Z,10.02
2022-08-14T22:51:15.996Z,9.90
2022-08-14T22:53:46.185Z,9.80
2022-08-14T22:56:20.586Z,9.50
2022-08-14T22:58:50.096Z,10.30
2022-08-14T23:01:56.676Z,9.70
2022-08-14T23:04:35.119Z,8.75
2022-08-14T23:07:05.264Z,7.88
2022-08-14T23:09:38.026Z,7.25
2022-08-14T23:12:28.313Z,8.05
2022-08-14T23:14:53.614Z,6.50
2022-08-14T23:17:22.622Z,6.03
2022-08-14T23:19:49.576Z,5.20
2022-08-14T23:22:24.339Z,5.50
2022-08-14T23:24:56.849Z,4.70
2022-08-14T23:28:02.507Z,5.30
2022-08-14T23:30:31.765Z,5.10
2022-08-14T23:33:02.364Z,4.88
2022-08-14T23:35:33.118Z,4.80
2022-08-14T23:38:01.936Z,4.60
2022-08-14T23:40:30.740Z,4.65
2022-08-14T23:43:09.200Z,4.80
2022-08-14T23:45:40.107Z,4.45
2022-08-14T23:48:12.426Z,4.93
2022-08-14T23:50:40.750Z,4.85
2022-08-14T23:53:27.939Z,4.97
2022-08-14T23:55:57.581Z,4.95
2022-08-14T23:58:29.762Z,4.45
